createdAt,value
2019-03-20T00:01:47.087Z,101006.02
2019-03-20T00:04:17.418Z,101004.91
2019-03-20T00:06:49.377Z,101004.68
2019-03-20T00:09:19.956Z,101001.89
2019-03-20T00:11:50.244Z,100999.59
2019-03-20T00:14:20.448Z,101003.70
2019-03-20T00:16:51.066Z,101001.83
2019-03-20T00:19:22.714Z,101008.59
2019-03-20T00:21:54.492Z,101002.23
2019-03-20T00:24:24.715Z,100999.29
2019-03-20T00:26:55.004Z,101000.55
2019-03-20T00:29:25.471Z,100879.73
2019-03-20T00:31:55.680Z,100988.11
2019-03-20T00:34:26.036Z,100990.98
2019-03-20T00:36:57.602Z,100989.22
2019-03-20T00:39:28.001Z,100868.11
2019-03-20T00:41:59.650Z,100988.79
2019-03-20T00:44:30.274Z,100988.20
2019-03-20T00:47:00.892Z,100990.36
2019-03-20T00:49:31.459Z,101001.17
2019-03-20T00:52:01.663Z,100996.80
2019-03-20T00:54:31.934Z,100997.63
2019-03-20T00:57:02.216Z,100994.92
2019-03-20T00:59:34.102Z,100996.92
2019-03-20T01:02:04.341Z,100996.60
2019-03-20T01:04:34.577Z,100991.45
2019-03-20T01:07:04.880Z,100989.22
2019-03-20T01:09:36.425Z,100988.20
2019-03-20T01:12:06.773Z,100988.91
2019-03-20T01:14:37.330Z,100983.41
2019-03-20T01:17:07.644Z,100982.81
2019-03-20T01:19:37.861Z,100985.44
2019-03-20T01:22:08.246Z,100980.73
2019-03-20T01:24:38.500Z,100982.02
2019-03-20T01:27:08.912Z,100982.64
2019-03-20T01:29:39.392Z,100984.14
2019-03-20T01:32:09.874Z,100984.88
2019-03-20T01:34:40.394Z,100982.02
2019-03-20T01:37:10.897Z,100985.32
2019-03-20T01:39:41.363Z,100992.27
2019-03-20T01:42:11.955Z,100996.86
2019-03-20T01:44:42.133Z,100996.71
2019-03-20T01:47:12.390Z,100994.21
2019-03-20T01:49:42.585Z,100996.71
2019-03-20T01:52:12.829Z,101007.30
2019-03-20T01:54:43.019Z,101003.42
2019-03-20T01:57:13.335Z,101012.81
2019-03-20T01:59:43.560Z,100997.39
2019-03-20T02:02:14.421Z,101014.34
2019-03-20T02:04:44.788Z,101012.67
2019-03-20T02:07:16.689Z,101011.34
2019-03-20T02:09:46.973Z,101012.44
2019-03-20T02:12:17.462Z,101015.81
2019-03-20T02:14:48.716Z,101023.15
2019-03-20T02:17:19.978Z,101013.41
2019-03-20T02:19:50.178Z,101011.49
2019-03-20T02:22:21.493Z,101004.92
2019-03-20T02:24:53.467Z,100999.98
2019-03-20T02:27:23.753Z,100998.89
2019-03-20T02:29:54.277Z,101001.75
2019-03-20T02:32:24.605Z,101009.87
2019-03-20T02:34:55.032Z,100998.01
2019-03-20T02:37:25.193Z,100999.35
2019-03-20T02:39:55.491Z,101004.18
2019-03-20T02:42:26.099Z,101009.59
2019-03-20T02:44:56.598Z,101007.95
2019-03-20T02:47:26.691Z,101003.83
2019-03-20T02:49:58.047Z,101006.32
2019-03-20T02:52:28.263Z,101011.73
2019-03-20T02:54:58.597Z,101014.25
2019-03-20T02:57:30.643Z,101011.06
2019-03-20T03:00:03.521Z,101022.61
2019-03-20T03:02:35.517Z,101026.39
2019-03-20T03:05:06.609Z,101024.95
2019-03-20T03:07:37.614Z,101022.22
2019-03-20T03:10:08.524Z,101015.11
2019-03-20T03:12:38.808Z,101025.09
2019-03-20T03:15:10.836Z,101032.61
2019-03-20T03:17:41.121Z,101024.62
2019-03-20T03:20:12.651Z,101027.42
2019-03-20T03:22:43.068Z,101026.38
2019-03-20T03:25:14.542Z,101025.57
2019-03-20T03:27:44.807Z,101027.32
2019-03-20T03:30:16.590Z,101023.55
2019-03-20T03:32:47.344Z,101020.51
2019-03-20T03:35:19.913Z,101017.82
2019-03-20T03:37:49.866Z,101019.11
2019-03-20T03:40:20.443Z,101022.17
2019-03-20T03:42:52.348Z,101026.89
2019-03-20T03:45:22.580Z,101036.98
2019-03-20T03:47:53.369Z,101044.88
2019-03-20T03:50:23.658Z,101046.18
2019-03-20T03:52:54.219Z,101051.56
2019-03-20T03:55:24.447Z,101045.55
2019-03-20T03:57:54.681Z,101048.86
2019-03-20T04:00:26.279Z,101051.44
2019-03-20T04:02:56.640Z,101053.78
2019-03-20T04:05:26.895Z,101051.44
2019-03-20T04:07:57.532Z,101055.80
2019-03-20T04:10:27.729Z,101064.73
2019-03-20T04:12:57.978Z,101051.80
2019-03-20T04:15:28.252Z,101054.61
2019-03-20T04:17:58.631Z,101044.52
2019-03-20T04:20:28.831Z,100866.21
2019-03-20T04:22:59.173Z,101039.94
2019-03-20T04:25:29.333Z,101041.61
2019-03-20T04:28:00.872Z,101044.42
2019-03-20T04:30:32.267Z,101050.67
2019-03-20T04:33:02.540Z,101049.38
2019-03-20T04:35:32.706Z,101061.84
2019-03-20T04:38:03.002Z,100939.16
2019-03-20T04:40:33.263Z,101059.95
2019-03-20T04:43:03.849Z,101071.84
2019-03-20T04:45:35.160Z,101059.60
2019-03-20T04:48:06.181Z,101056.66
2019-03-20T04:50:36.552Z,101065.38
2019-03-20T04:53:08.216Z,101073.25
2019-03-20T04:55:38.965Z,101067.97
2019-03-20T04:58:09.487Z,101067.14
2019-03-20T05:00:40.058Z,101069.12
2019-03-20T05:03:10.442Z,101083.23
2019-03-20T05:05:40.894Z,101067.47
2019-03-20T05:08:11.090Z,101081.22
2019-03-20T05:11:22.254Z,101079.36
2019-03-20T05:14:08.553Z,101073.72
2019-03-20T05:16:39.487Z,101074.55
2019-03-20T05:19:11.023Z,101072.06
2019-03-20T05:21:41.481Z,101070.42
2019-03-20T05:24:11.713Z,101068.55
2019-03-20T05:26:42.265Z,101080.30
2019-03-20T05:29:12.826Z,101077.70
2019-03-20T05:31:43.169Z,101072.78
2019-03-20T05:34:13.382Z,101081.84
2019-03-20T05:36:44.334Z,101085.25
2019-03-20T05:39:15.920Z,101085.11
2019-03-20T05:41:46.550Z,100968.62
2019-03-20T05:44:17.538Z,101090.63
2019-03-20T05:46:47.774Z,101089.70
2019-03-20T05:49:20.930Z,101094.19
2019-03-20T05:51:51.584Z,101093.83
2019-03-20T05:54:23.372Z,101099.23
2019-03-20T05:56:53.782Z,101100.52
2019-03-20T05:59:24.348Z,101101.81
2019-03-20T06:01:55.085Z,101106.52
2019-03-20T06:04:26.526Z,101112.88
2019-03-20T06:06:57.264Z,101116.53
2019-03-20T06:09:29.220Z,101120.63
2019-03-20T06:11:59.891Z,100994.50
2019-03-20T06:14:31.835Z,101124.49
2019-03-20T06:17:02.118Z,101126.97
2019-03-20T06:19:32.518Z,101125.67
2019-03-20T06:22:04.999Z,101126.97
2019-03-20T06:24:35.862Z,100938.22
2019-03-20T06:27:07.583Z,101129.44
2019-03-20T06:29:38.322Z,101132.96
2019-03-20T06:32:09.603Z,101132.73
2019-03-20T06:34:41.448Z,101135.77
2019-03-20T06:37:16.583Z,101143.63
2019-03-20T06:39:48.253Z,101143.86
2019-03-20T06:42:20.439Z,101148.33
2019-03-20T06:44:50.924Z,101152.80
2019-03-20T06:47:22.681Z,101159.92
2019-03-20T06:49:58.935Z,101158.14
2019-03-20T06:52:30.404Z,101157.53
2019-03-20T06:55:01.407Z,101155.05
2019-03-20T06:57:31.946Z,101157.86
2019-03-20T07:00:41.534Z,101162.20
2019-03-20T07:03:16.288Z,101168.05
2019-03-20T07:06:14.070Z,101167.28
2019-03-20T07:08:49.568Z,101047.31
2019-03-20T07:11:18.640Z,101168.56
2019-03-20T07:13:50.667Z,101167.20
2019-03-20T07:16:22.696Z,101161.46
2019-03-20T07:18:53.026Z,101160.86
2019-03-20T07:21:23.563Z,101160.60
2019-03-20T07:23:55.251Z,101153.70
2019-03-20T07:26:25.525Z,101158.69
2019-03-20T07:28:55.749Z,101158.91
2019-03-20T07:31:26.132Z,101162.78
2019-03-20T07:33:57.891Z,101161.77
2019-03-20T07:36:28.411Z,101160.53
2019-03-20T07:38:58.842Z,101164.08
2019-03-20T07:41:29.596Z,101167.70
2019-03-20T07:44:01.318Z,101171.09
2019-03-20T07:46:31.732Z,101172.44
2019-03-20T07:49:16.032Z,101173.20
2019-03-20T07:51:46.315Z,101173.23
2019-03-20T07:54:16.557Z,101179.08
2019-03-20T07:56:46.800Z,101174.08
2019-03-20T07:59:17.533Z,101173.94
2019-03-20T08:01:48.166Z,101173.94
2019-03-20T08:04:18.445Z,101178.05
2019-03-20T08:06:50.130Z,101178.05
2019-03-20T08:09:22.071Z,101181.23
2019-03-20T08:11:52.612Z,101186.70
2019-03-20T08:14:22.854Z,101186.70
2019-03-20T08:16:53.669Z,101187.03
2019-03-20T08:19:23.893Z,101187.03
2019-03-20T08:21:54.159Z,101189.54
2019-03-20T08:24:24.391Z,101182.87
2019-03-20T08:26:55.945Z,101187.06
2019-03-20T08:29:26.233Z,101188.94
2019-03-20T08:31:56.371Z,101187.56
2019-03-20T08:34:27.025Z,101193.19
2019-03-20T08:37:02.345Z,101186.87
2019-03-20T08:39:33.565Z,101193.80
2019-03-20T08:42:04.275Z,101194.41
2019-03-20T08:44:35.918Z,101195.39
2019-03-20T08:47:06.120Z,101195.30
2019-03-20T08:49:36.893Z,101198.12
2019-03-20T08:52:07.296Z,101203.10
2019-03-20T08:54:37.860Z,101205.57
2019-03-20T08:57:12.024Z,101205.12
2019-03-20T08:59:42.314Z,101210.50
2019-03-20T09:02:12.933Z,101204.82
2019-03-20T09:04:43.600Z,101148.81
2019-03-20T09:07:14.143Z,101215.10
2019-03-20T09:09:44.690Z,101211.69
2019-03-20T09:12:15.927Z,101207.81
2019-03-20T09:14:46.375Z,101213.55
2019-03-20T09:17:16.867Z,101210.77
2019-03-20T09:19:47.155Z,101210.77
2019-03-20T09:22:18.973Z,101215.33
2019-03-20T09:24:49.627Z,101202.92
2019-03-20T09:27:21.144Z,101210.09
2019-03-20T09:29:51.452Z,101221.55
2019-03-20T09:32:22.805Z,101219.92
2019-03-20T09:34:53.158Z,101221.03
2019-03-20T09:37:23.512Z,101228.08
2019-03-20T09:39:54.896Z,101218.26
2019-03-20T09:42:25.083Z,101224.01
2019-03-20T09:44:55.392Z,101218.89
2019-03-20T09:47:26.847Z,101139.17
2019-03-20T09:49:58.609Z,101233.52
2019-03-20T09:52:28.771Z,101218.61
2019-03-20T09:54:59.766Z,101221.22
2019-03-20T09:57:30.031Z,101227.10
2019-03-20T10:00:00.597Z,101120.02
2019-03-20T10:02:31.298Z,101211.27
2019-03-20T10:05:05.124Z,101203.98
2019-03-20T10:07:35.810Z,101206.13
2019-03-20T10:10:08.285Z,101194.61
2019-03-20T10:12:45.425Z,101195.07
2019-03-20T10:15:14.261Z,101195.50
2019-03-20T10:17:45.613Z,101191.84
2019-03-20T10:20:18.892Z,101189.98
2019-03-20T10:22:50.214Z,101185.20
2019-03-20T10:25:23.870Z,101193.03
2019-03-20T10:27:54.261Z,101192.74
2019-03-20T10:30:24.986Z,101190.38
2019-03-20T10:32:55.345Z,101193.49
2019-03-20T10:35:26.023Z,101189.03
2019-03-20T10:37:58.874Z,101190.58
2019-03-20T10:40:34.689Z,101191.78
2019-03-20T10:43:05.959Z,101191.92
2019-03-20T10:45:36.900Z,101186.86
2019-03-20T10:48:07.223Z,101191.20
2019-03-20T10:50:38.819Z,101183.02
2019-03-20T10:53:09.614Z,101180.45
2019-03-20T10:55:41.192Z,101179.56
2019-03-20T10:58:11.498Z,101183.66
2019-03-20T11:00:42.041Z,101178.55
2019-03-20T11:03:12.516Z,101179.37
2019-03-20T11:05:43.051Z,101184.97
2019-03-20T11:08:13.401Z,101184.23
2019-03-20T11:10:46.263Z,101188.44
2019-03-20T11:13:16.958Z,101184.64
2019-03-20T11:15:47.514Z,101188.74
2019-03-20T11:18:17.916Z,101183.15
2019-03-20T11:20:49.057Z,101188.45
2019-03-20T11:23:20.648Z,101180.88
2019-03-20T11:25:50.816Z,101183.64
2019-03-20T11:28:22.064Z,101185.20
2019-03-20T11:30:53.085Z,101183.34
2019-03-20T11:33:23.689Z,101180.64
2019-03-20T11:35:54.638Z,101177.11
2019-03-20T11:38:24.939Z,101181.33
2019-03-20T11:40:59.439Z,101170.30
2019-03-20T11:43:31.048Z,101084.23
2019-03-20T11:46:01.608Z,101074.23
2019-03-20T11:48:33.517Z,101174.83
2019-03-20T11:51:06.366Z,101168.88
2019-03-20T11:53:38.056Z,101166.43
2019-03-20T11:56:08.665Z,101172.56
2019-03-20T11:58:39.167Z,101163.66
2019-03-20T12:01:11.381Z,101178.08
2019-03-20T12:03:47.239Z,101161.16
2019-03-20T12:06:19.437Z,101169.17
2019-03-20T12:08:51.355Z,101163.20
2019-03-20T12:11:23.384Z,101151.95
2019-03-20T12:13:54.084Z,101155.24
2019-03-20T12:16:27.781Z,101146.06
2019-03-20T12:19:05.524Z,101143.19
2019-03-20T12:21:39.602Z,101066.47
2019-03-20T12:24:11.375Z,101145.59
2019-03-20T12:26:42.101Z,101144.70
2019-03-20T12:29:13.099Z,101144.34
2019-03-20T12:31:44.493Z,101144.16
2019-03-20T12:34:16.372Z,101158.61
2019-03-20T12:36:47.417Z,101140.47
2019-03-20T12:39:19.490Z,101146.11
2019-03-20T12:41:50.242Z,101133.66
2019-03-20T12:44:20.880Z,101135.88
2019-03-20T12:46:52.360Z,101132.56
2019-03-20T12:49:22.943Z,101047.41
2019-03-20T12:51:55.030Z,101118.75
2019-03-20T12:54:27.186Z,101117.28
2019-03-20T12:56:57.544Z,101012.75
2019-03-20T12:59:28.560Z,101106.09
2019-03-20T13:01:59.024Z,101108.86
2019-03-20T13:04:30.838Z,101103.90
2019-03-20T13:07:01.514Z,101105.38
2019-03-20T13:09:31.679Z,101101.85
2019-03-20T13:12:03.739Z,101095.34
2019-03-20T13:14:34.519Z,101093.09
2019-03-20T13:17:05.049Z,101003.11
2019-03-20T13:19:36.047Z,101099.34
2019-03-20T13:22:08.883Z,101097.21
2019-03-20T13:24:45.972Z,101100.52
2019-03-20T13:27:17.984Z,101105.88
2019-03-20T13:29:48.695Z,101098.20
2019-03-20T13:32:19.683Z,101101.64
2019-03-20T13:34:55.320Z,101004.24
2019-03-20T13:37:26.023Z,101089.56
2019-03-20T13:39:57.896Z,101090.61
2019-03-20T13:42:29.121Z,101105.71
2019-03-20T13:45:01.511Z,101098.47
2019-03-20T13:47:34.152Z,101100.63
2019-03-20T13:50:06.597Z,101096.08
2019-03-20T13:52:41.505Z,101104.43
2019-03-20T13:55:14.520Z,101087.33
2019-03-20T13:57:45.674Z,101090.61
2019-03-20T14:00:23.154Z,100998.91
2019-03-20T14:02:56.450Z,101095.39
2019-03-20T14:05:28.874Z,101098.78
2019-03-20T14:08:05.387Z,101098.53
2019-03-20T14:10:49.436Z,101099.51
2019-03-20T14:13:10.366Z,101105.44
2019-03-20T14:15:41.972Z,101111.41
2019-03-20T14:18:13.673Z,101104.44
2019-03-20T14:20:45.262Z,101112.58
2019-03-20T14:23:22.651Z,101121.22
2019-03-20T14:25:56.340Z,101112.58
2019-03-20T14:28:28.432Z,101109.86
2019-03-20T14:30:59.203Z,101101.27
2019-03-20T14:33:31.345Z,101106.05
2019-03-20T14:36:08.873Z,101103.40
2019-03-20T14:38:40.723Z,101104.22
2019-03-20T14:41:21.609Z,101099.86
2019-03-20T14:43:46.667Z,101111.84
2019-03-20T14:46:28.118Z,101100.75
2019-03-20T14:49:00.239Z,101096.47
2019-03-20T14:51:34.930Z,101094.11
2019-03-20T14:54:05.717Z,101096.23
2019-03-20T14:56:37.532Z,101089.80
2019-03-20T14:59:10.421Z,100993.59
2019-03-20T15:01:41.223Z,100990.45
2019-03-20T15:04:11.813Z,101094.44
2019-03-20T15:06:42.753Z,101088.31
2019-03-20T15:09:13.759Z,101084.50
2019-03-20T15:11:44.038Z,101089.52
2019-03-20T15:14:14.715Z,101080.50
2019-03-20T15:16:45.263Z,101078.44
2019-03-20T15:19:15.971Z,101077.35
2019-03-20T15:21:46.388Z,101072.30
2019-03-20T15:24:18.621Z,101070.73
2019-03-20T15:26:49.663Z,101071.56
2019-03-20T15:29:24.472Z,101055.55
2019-03-20T15:31:55.928Z,101063.17
2019-03-20T15:34:28.518Z,101065.09
2019-03-20T15:36:59.122Z,101057.87
2019-03-20T15:39:29.706Z,101055.53
2019-03-20T15:42:01.708Z,101051.05
2019-03-20T15:44:35.942Z,101055.13
2019-03-20T15:47:07.418Z,101056.83
2019-03-20T15:49:39.428Z,101049.73
2019-03-20T15:52:14.756Z,101044.34
2019-03-20T15:54:50.131Z,101054.37
2019-03-20T15:57:20.941Z,101053.67
2019-03-20T15:59:51.874Z,101053.05
2019-03-20T16:02:23.969Z,101046.54
2019-03-20T16:04:59.616Z,101050.59
2019-03-20T16:07:30.467Z,101054.72
2019-03-20T16:10:03.478Z,101052.00
2019-03-20T16:12:37.867Z,101057.06
2019-03-20T16:15:11.841Z,101055.89
2019-03-20T16:17:46.540Z,101056.30
2019-03-20T16:20:19.033Z,101060.77
2019-03-20T16:22:50.360Z,101055.48
2019-03-20T16:25:22.272Z,101069.69
2019-03-20T16:27:57.380Z,101056.91
2019-03-20T16:30:31.442Z,101061.89
2019-03-20T16:33:04.391Z,101061.91
2019-03-20T16:35:38.454Z,101065.27
2019-03-20T16:38:10.375Z,101062.33
2019-03-20T16:40:42.624Z,100980.23
2019-03-20T16:43:18.721Z,101067.17
2019-03-20T16:45:51.951Z,101072.77
2019-03-20T16:48:24.475Z,101060.04
2019-03-20T16:50:55.443Z,101067.31
2019-03-20T16:53:26.031Z,101069.11
2019-03-20T16:55:59.233Z,101073.27
2019-03-20T16:58:32.323Z,101072.95
2019-03-20T17:01:06.799Z,101075.90
2019-03-20T17:03:41.701Z,101083.14
2019-03-20T17:06:13.932Z,101082.19
2019-03-20T17:08:45.146Z,101075.67
2019-03-20T17:11:26.457Z,101071.30
2019-03-20T17:13:54.026Z,101072.20
2019-03-20T17:16:29.638Z,101075.97
2019-03-20T17:19:07.045Z,101073.00
2019-03-20T17:21:41.438Z,101075.38
2019-03-20T17:24:12.322Z,101083.59
2019-03-20T17:26:46.890Z,101078.25
2019-03-20T17:29:17.566Z,101085.42
2019-03-20T17:31:49.419Z,101088.30
2019-03-20T17:34:20.988Z,101085.27
2019-03-20T17:36:53.504Z,101082.93
2019-03-20T17:39:24.202Z,101095.73
2019-03-20T17:41:57.273Z,101098.00
2019-03-20T17:44:30.967Z,101101.41
2019-03-20T17:47:04.082Z,101104.34
2019-03-20T17:49:37.388Z,101105.10
2019-03-20T17:52:08.179Z,101104.20
2019-03-20T17:54:41.547Z,101115.44
2019-03-20T17:57:15.582Z,101123.25
2019-03-20T17:59:48.272Z,101123.99
2019-03-20T18:02:23.991Z,101119.78
2019-03-20T18:04:52.771Z,101119.20
2019-03-20T18:07:26.377Z,101122.06
2019-03-20T18:09:58.444Z,101122.60
2019-03-20T18:12:29.499Z,101120.38
2019-03-20T18:15:01.728Z,101120.73
2019-03-20T18:17:32.970Z,101121.09
2019-03-20T18:20:07.539Z,101120.47
2019-03-20T18:22:41.223Z,101124.95
2019-03-20T18:25:12.799Z,101125.31
2019-03-20T18:27:43.517Z,101129.59
2019-03-20T18:30:21.492Z,101130.60
2019-03-20T18:32:52.371Z,101125.55
2019-03-20T18:35:25.106Z,101129.01
2019-03-20T18:37:56.542Z,101137.20
2019-03-20T18:40:28.162Z,101135.09
2019-03-20T18:42:58.776Z,101142.64
2019-03-20T18:45:29.405Z,101145.06
2019-03-20T18:48:00.042Z,101147.20
2019-03-20T18:50:31.944Z,101153.59
2019-03-20T18:53:03.869Z,101147.86
2019-03-20T18:55:34.776Z,101154.90
2019-03-20T18:58:06.672Z,101154.76
2019-03-20T19:00:39.816Z,101163.41
2019-03-20T19:03:11.086Z,101154.42
2019-03-20T19:05:49.758Z,101166.22
2019-03-20T19:08:22.098Z,101156.56
2019-03-20T19:10:55.997Z,101159.98
2019-03-20T19:13:29.883Z,101048.45
2019-03-20T19:16:01.503Z,101073.13
2019-03-20T19:18:34.042Z,101181.61
2019-03-20T19:21:05.808Z,101171.79
2019-03-20T19:23:38.072Z,101172.28
2019-03-20T19:26:08.894Z,101171.81
2019-03-20T19:28:39.870Z,101168.84
2019-03-20T19:31:10.918Z,101173.28
2019-03-20T19:33:41.252Z,101174.44
2019-03-20T19:36:13.051Z,101173.76
2019-03-20T19:38:43.840Z,101174.27
2019-03-20T19:41:16.268Z,101176.70
2019-03-20T19:43:46.793Z,101178.69
2019-03-20T19:46:17.867Z,101176.57
2019-03-20T19:48:48.535Z,101180.97
2019-03-20T19:51:18.881Z,101180.31
2019-03-20T19:53:50.788Z,101182.94
2019-03-20T19:56:21.554Z,101179.50
2019-03-20T19:58:54.201Z,101181.12
2019-03-20T20:01:25.044Z,101176.22
2019-03-20T20:03:55.910Z,101189.78
2019-03-20T20:06:27.339Z,101187.80
2019-03-20T20:08:58.484Z,101193.37
2019-03-20T20:11:29.145Z,101184.06
2019-03-20T20:13:59.661Z,101095.43
2019-03-20T20:16:30.797Z,101081.69
2019-03-20T20:19:02.210Z,101194.66
2019-03-20T20:21:32.939Z,101201.02
2019-03-20T20:24:08.675Z,101196.60
2019-03-20T20:26:39.103Z,101198.73
2019-03-20T20:29:11.013Z,101195.45
2019-03-20T20:31:47.957Z,101199.06
2019-03-20T20:34:18.167Z,101200.34
2019-03-20T20:36:49.156Z,101203.26
2019-03-20T20:39:19.720Z,101206.24
2019-03-20T20:41:50.687Z,101209.16
2019-03-20T20:44:21.700Z,101203.88
2019-03-20T20:46:53.505Z,101208.92
2019-03-20T20:49:26.793Z,101208.14
2019-03-20T20:51:59.608Z,101207.33
2019-03-20T20:54:31.470Z,101198.02
2019-03-20T20:57:03.573Z,101202.09
2019-03-20T20:59:33.952Z,101054.77
2019-03-20T21:02:06.329Z,101199.28
2019-03-20T21:04:42.601Z,101088.80
2019-03-20T21:07:15.823Z,101210.52
2019-03-20T21:09:46.286Z,101212.16
2019-03-20T21:12:18.417Z,101206.88
2019-03-20T21:14:49.395Z,101207.55
2019-03-20T21:17:29.608Z,101185.61
2019-03-20T21:20:01.146Z,101196.08
2019-03-20T21:23:09.222Z,101198.67
2019-03-20T21:25:42.250Z,101197.66
2019-03-20T21:28:51.640Z,101205.65
2019-03-20T21:31:44.226Z,101199.30
2019-03-20T21:34:39.806Z,101200.22
2019-03-20T21:38:05.194Z,101200.06
2019-03-20T21:40:41.803Z,101199.91
2019-03-20T21:43:38.594Z,101200.89
2019-03-20T21:46:53.750Z,101196.96
2019-03-20T21:49:24.790Z,101196.96
2019-03-20T21:51:59.106Z,101191.38
2019-03-20T21:55:14.875Z,101203.16
2019-03-20T21:58:16.450Z,101203.16
2019-03-20T22:01:23.318Z,101200.55
2019-03-20T22:03:58.626Z,101199.74
2019-03-20T22:07:17.462Z,101204.08
2019-03-20T22:10:46.993Z,101212.70
2019-03-20T22:13:53.629Z,101098.89
2019-03-20T22:16:52.984Z,101098.89
2019-03-20T22:20:02.560Z,101216.70
2019-03-20T22:23:09.338Z,101216.70
2019-03-20T22:26:31.919Z,101219.95
2019-03-20T22:29:26.128Z,101212.36
2019-03-20T22:32:36.970Z,101211.34
2019-03-20T22:35:45.730Z,101232.31
2019-03-20T22:38:38.361Z,101204.60
2019-03-20T22:41:43.869Z,101204.60
2019-03-20T22:44:14.770Z,101227.07
2019-03-20T22:47:34.777Z,101227.34
2019-03-20T22:50:16.780Z,101232.80
2019-03-20T22:53:18.786Z,101223.09
2019-03-20T22:56:18.029Z,101227.64
2019-03-20T22:58:49.406Z,101227.64
2019-03-20T23:01:46.367Z,101238.25
2019-03-20T23:04:25.517Z,101238.25
2019-03-20T23:06:57.303Z,101240.89
2019-03-20T23:09:28.934Z,101245.38
2019-03-20T23:12:01.605Z,101245.38
2019-03-20T23:14:32.904Z,101241.57
2019-03-20T23:17:04.200Z,101239.72
2019-03-20T23:19:36.263Z,101248.14
2019-03-20T23:22:07.347Z,101248.03
2019-03-20T23:24:42.063Z,101248.03
2019-03-20T23:27:16.241Z,101245.88
2019-03-20T23:29:48.094Z,101256.63
2019-03-20T23:32:18.937Z,101254.99
2019-03-20T23:34:49.897Z,101254.99
2019-03-20T23:37:21.520Z,101259.59
2019-03-20T23:39:52.631Z,101258.88
2019-03-20T23:42:24.841Z,101257.74
2019-03-20T23:44:56.145Z,101257.74
2019-03-20T23:47:35.316Z,101265.19
2019-03-20T23:50:08.378Z,101259.59
2019-03-20T23:52:40.778Z,101262.34
2019-03-20T23:55:12.682Z,101265.73
2019-03-20T23:57:43.490Z,101265.73
